Port Chester, New York
Current Conditions -  °F | °C
As of 5:56 PM on Thursday 27 Nov 2014 (Local Time) from KHPN Reporting Station
Broken Clouds Broken Clouds  
Wind Chill: 29°   Ceiling: 1300
Heat Index: 34°   Visibility: 10mi
Dew Point: 29°   Wind: 6mph
Humidity: 82%   Direction: 340°NNW
Pressure: 29.99"   Gusts: NA
Location:  41°N, 73.67°W
Report Text: KHPN 272256Z AUTO 34005KT 10SM BKN013 BKN040 01/M02 A2999 RMK AO2 SLP164 T00111017 TSNO
Loading
Personal Weather Stations






























Interactive Weather Map New forecast layout! Learn more

10-Day Weather Forecast

Advertisements
Track Severe Weather on mobile